Latest Coastal Weather Observations for Barrow Island

IDW60701

Issued at 9:43 pm WST Monday 4 May 2026 (issued every 10 minutes, with the page automatically refreshed every 10 minutes)

About coastal observations | Map of coastal stations | Coastal observations for WA | Marine services | Other Formats
Station Details ID: 005094 Name: BARROW ISLAND AIRPORT Lat: -20.87 Lon: 115.41 Height: 6.4 m
Data from the previous 72 hours. | See also: Recent months at Barrow Island
Date/Time
WST
Wind Sea
Height
m
Swell Vis
km
Cloud Weather Temp
°C
Press
MSL
hPa
Rain since
9am
mm
Dir  Spd
kts
Gust
kts
Height
m
Period
s
Dir
04/09:30pm N 9 10 - - - - - - - 23.4 1015.2 0.0
04/09:00pm N 8 9 - - - - - - - 23.1 1015.5 0.0
04/08:30pm N 6 7 - - - - - - - 22.3 1015.7 0.0
04/08:00pm N 4 5 - - - - - - - 23.2 1015.5 0.0
04/07:30pm NNE 8 9 - - - - - - - 24.2 1015.3 0.0
04/07:00pm NNE 8 9 - - - - - - - 24.5 1014.9 0.0
04/06:30pm NNE 10 11 - - - - - - - 25.0 1014.7 0.0
04/06:00pm NNE 9 11 - - - - - - - 25.7 1014.6 0.0
04/05:30pm NNE 11 12 - - - - - - - 26.8 1014.2 0.0
04/05:00pm NE 13 15 - - - - - - - 27.9 1014.1 0.0
04/04:30pm NE 13 15 - - - - - - - 28.4 1014.2 0.0
04/04:00pm NE 14 16 - - - - - - - 28.5 1014.1 0.0
04/03:30pm ENE 15 17 - - - - - - - 28.2 1014.0 0.0
04/03:00pm ENE 15 17 - - - - - - - 28.3 1014.1 0.0
04/02:30pm ENE 15 18 - - - - - - - 28.2 1014.3 0.0
04/02:00pm ENE 16 19 - - - - - - - 28.3 1014.6 0.0
04/01:30pm ENE 17 20 - - - - - - - 28.3 1014.8 0.0
04/01:00pm ENE 18 21 - - - - - - - 27.9 1015.2 0.0
04/12:30pm ENE 19 22 - - - - - - - 28.0 1015.6 0.0
04/12:00pm ENE 19 22 - - - - - - - 27.7 1016.2 0.0
04/11:30am ENE 20 23 - - - - - - - 27.4 1016.7 0.0
04/11:00am ENE 20 24 - - - - - - - 27.1 1017.0 0.0
04/10:30am ENE 23 26 - - - - - - - 27.1 1017.3 0.0
04/10:00am E 23 27 - - - - - - - 26.8 1017.3 0.0
04/09:30am ENE 24 28 - - - - - - - 26.9 1017.2 0.0
04/09:00am ENE 24 27 - - - - - - - 27.0 1017.0 0.0
04/08:30am ENE 24 28 - - - - - - - 26.8 1016.7 0.0
04/08:00am E 23 26 - - - - - - - 26.8 1016.6 0.0
04/07:30am E 22 27 - - - - - - - 26.4 1016.5 0.0
04/07:00am E 19 23 - - - - - - - 26.2 1016.4 0.0
04/06:30am ESE 16 21 - - - - - - - 26.2 1016.1 0.0
04/06:00am SE 15 17 - - - - - - - 25.9 1015.7 0.0
04/05:30am SE 15 17 - - - - - - - 25.9 1015.4 0.0
04/05:00am SE 16 18 - - - - - - - 25.9 1015.2 0.0
04/04:30am SE 16 18 - - - - - - - 25.6 1015.2 0.0
04/04:00am SE 13 15 - - - - - - - 25.5 1015.2 0.0
04/03:30am SE 13 16 - - - - - - - 25.6 1015.1 0.0
04/03:00am SE 10 12 - - - - - - - 25.9 1015.1 0.0
04/02:30am CALM 0 2 - - - - - - - 24.8 1014.8 0.0
04/02:00am WNW 3 4 - - - - - - - 23.7 1014.6 0.0
04/01:30am NNW 5 6 - - - - - - - 23.1 1014.4 0.0
04/01:00am NW 7 8 - - - - - - - 22.9 1014.5 0.0
04/12:30am N 7 8 - - - - - - - 23.0 1014.7 0.0
04/12:00am NNW 9 10 - - - - - - - 23.3 1014.8 0.0
 
Date/Time
WST
Wind Sea
Height
m
Swell Vis
km
Cloud Weather Temp
°C
Press
MSL
hPa
Rain since
9am
mm
Dir  Spd
kts
Gust
kts
Height
m
Period
s
Dir
03/11:30pm N 9 10 - - - - - - - 23.4 1014.9 0.0
03/11:00pm N 7 9 - - - - - - - 23.4 1015.0 0.0
03/10:30pm N 9 10 - - - - - - - 24.0 1015.1 0.0
03/10:00pm N 8 9 - - - - - - - 24.0 1015.0 0.0
03/09:30pm NNE 10 11 - - - - - - - 25.1 1015.1 0.0
03/09:00pm NNE 10 12 - - - - - - - 25.2 1015.1 0.0
03/08:30pm NNE 10 11 - - - - - - - 24.6 1014.9 0.0
03/08:00pm NNE 9 10 - - - - - - - 24.4 1014.5 0.0
03/07:30pm NNE 9 10 - - - - - - - 24.8 1014.2 0.0
03/07:00pm NNE 8 11 - - - - - - - 25.1 1013.9 0.0
03/06:30pm NE 12 13 - - - - - - - 26.1 1013.5 0.0
03/06:00pm NE 13 14 - - - - - - - 26.2 1013.3 0.0
03/05:30pm NE 14 17 - - - - - - - 26.5 1013.1 0.0
03/05:00pm NE 16 18 - - - - - - - 26.9 1012.8 0.0
03/04:30pm NE 17 20 - - - - - - - 27.1 1012.4 0.0
03/04:00pm NE 17 20 - - - - - - - 27.4 1012.4 0.0
03/03:30pm NE 17 21 - - - - - - - 27.6 1012.4 0.0
03/03:00pm NE 18 20 - - - - - - - 27.6 1012.6 0.0
03/02:30pm NE 19 23 - - - - - - - 27.7 1012.8 0.0
03/02:00pm NE 20 22 - - - - - - - 27.7 1012.8 0.0
03/01:30pm ENE 21 24 - - - - - - - 27.5 1013.2 0.0
03/01:00pm ENE 21 24 - - - - - - - 27.8 1013.5 0.0
03/12:30pm ENE 21 25 - - - - - - - 27.7 1013.7 0.0
03/12:00pm ENE 22 25 - - - - - - - 27.7 1014.1 0.0
03/11:30am ENE 23 27 - - - - - - - 27.4 1014.6 0.0
03/11:00am ENE 23 28 - - - - - - - 27.2 1014.9 0.0
03/10:30am ENE 24 27 - - - - - - - 26.6 1015.0 0.0
03/10:00am ENE 24 28 - - - - - - - 27.1 1015.1 0.0
03/09:30am ENE 23 28 - - - - - - - 26.9 1015.0 0.0
03/09:00am ENE 23 28 - - - - - - - 26.9 1014.7 0.0
03/08:30am ENE 21 25 - - - - - - - 27.1 1014.6 0.0
03/08:00am ENE 15 21 - - - - - - - 25.8 1014.4 0.0
03/07:56am ENE 8 19 - - - - - - - 25.8 1014.4 0.0
03/07:30am ESE 2 4 - - - - - - - 26.3 1013.9 0.0
03/07:00am ENE 4 5 - - - - - - - 25.1 1013.5 0.0
03/06:30am NNW 4 25 - - - - - - - 24.2 1013.1 0.0
03/06:00am NNW 3 4 - - - - - - - 23.9 1012.8 0.0
03/05:30am NNW 4 4 - - - - - - - 23.6 1012.4 0.0
03/05:00am NNW 3 4 - - - - - - - 23.0 1012.3 0.0
03/04:30am NNW 4 4 - - - - - - - 22.9 1012.1 0.0
03/04:00am NNW 5 6 - - - - - - - 23.0 1012.3 0.0
03/03:30am NNW 5 5 - - - - - - - 23.9 1012.1 0.0
03/03:00am NNW 5 6 - - - - - - - 23.7 1012.2 0.0
03/02:30am N 5 6 - - - - - - - 23.6 1012.2 0.0
03/02:00am NNW 6 7 - - - - - - - 22.8 1012.2 0.0
03/01:30am NW 7 8 - - - - - - - 22.9 1012.0 0.0
03/01:00am NW 7 8 - - - - - - - 23.1 1012.1 0.0
03/12:30am NNW 6 7 - - - - - - - 23.3 1012.2 0.0
03/12:00am NNW 7 7 - - - - - - - 23.4 1012.3 0.0
 
Date/Time
WST
Wind Sea
Height
m
Swell Vis
km
Cloud Weather Temp
°C
Press
MSL
hPa
Rain since
9am
mm
Dir  Spd
kts
Gust
kts
Height
m
Period
s
Dir
02/11:30pm NW 5 6 - - - - - - - 23.6 1012.6 0.0
02/11:00pm NNW 6 7 - - - - - - - 23.7 1012.6 0.0
02/10:30pm NNW 7 8 - - - - - - - 23.6 1012.6 0.0
02/10:00pm NNW 7 8 - - - - - - - 23.4 1012.7 0.0
02/09:30pm NNW 8 9 - - - - - - - 23.9 1012.7 0.0
02/09:00pm N 7 7 - - - - - - - 23.8 1012.6 0.0
02/08:30pm N 6 7 - - - - - - - 24.2 1012.4 0.0
02/08:00pm NNW 7 7 - - - - - - - 24.5 1011.9 0.0
02/07:30pm NNW 8 9 - - - - - - - 24.8 1011.5 0.0
02/07:00pm N 8 9 - - - - - - - 25.8 1011.2 0.0
02/06:30pm N 9 10 - - - - - - - 26.5 1010.8 0.0
02/06:00pm NNE 10 13 - - - - - - - 27.1 1010.6 0.0
02/05:30pm NNE 13 15 - - - - - - - 28.3 1010.4 0.0
02/05:00pm NE 14 16 - - - - - - - 28.8 1010.1 0.0
02/04:30pm NE 15 17 - - - - - - - 29.2 1010.1 0.0
02/04:00pm NE 16 18 - - - - - - - 29.2 1009.9 0.0
02/03:30pm NE 15 19 - - - - - - - 29.4 1010.1 0.0
02/03:00pm NE 15 18 - - - - - - - 29.4 1010.1 0.0
02/02:30pm NE 17 20 - - - - - - - 29.1 1010.1 0.0
02/02:00pm NE 16 19 - - - - - - - 29.4 1010.5 0.0
02/01:30pm ENE 17 19 - - - - - - - 29.3 1010.7 0.0
02/01:00pm ENE 17 19 - - - - - - - 29.1 1011.0 0.0
02/12:30pm ENE 17 19 - - - - - - - 29.0 1011.4 0.0
02/12:00pm ENE 15 18 - - - - - - - 28.8 1011.6 0.0
02/11:30am E 16 18 - - - - - - - 29.0 1011.8 0.0
02/11:00am E 11 13 - - - - - - - 29.3 1012.4 0.0
02/10:30am ESE 13 15 - - - - - - - 28.5 1012.4 0.0
02/10:00am SE 13 14 - - - - - - - 28.4 1012.6 0.0
02/09:30am SE 13 15 - - - - - - - 28.0 1012.5 0.0
02/09:00am SE 13 16 - - - - - - - 27.2 1012.4 0.0
02/08:30am SE 13 16 - - - - - - - 27.0 1012.3 0.0
02/08:00am SSE 13 15 - - - - - - - 26.5 1012.0 0.0
02/07:30am SSE 13 16 - - - - - - - 26.4 1011.7 0.0
02/07:00am SSE 14 16 - - - - - - - 26.1 1011.3 0.0
02/06:30am SSE 15 17 - - - - - - - 26.2 1010.9 0.0
02/06:00am SSE 14 17 - - - - - - - 26.3 1010.5 0.0
02/05:30am SSE 15 17 - - - - - - - 26.3 1010.1 0.0
02/05:00am SSE 16 18 - - - - - - - 26.3 1010.0 0.0
02/04:30am S 15 17 - - - - - - - 26.4 1010.2 0.0
02/04:00am S 17 19 - - - - - - - 26.6 1010.1 0.0
02/03:30am S 16 20 - - - - - - - 26.5 1010.2 0.0
02/03:00am S 17 19 - - - - - - - 26.7 1010.5 0.0
02/02:30am S 16 19 - - - - - - - 26.6 1010.5 0.0
02/02:00am S 16 19 - - - - - - - 26.7 1010.9 0.0
02/01:30am SSW 18 21 - - - - - - - 26.9 1011.3 0.0
02/01:00am SSW 19 22 - - - - - - - 27.0 1011.5 0.0
02/12:30am SSW 17 20 - - - - - - - 27.0 1011.5 0.0
02/12:00am SSW 18 21 - - - - - - - 27.1 1011.7 0.0
 
Date/Time
WST
Wind Sea
Height
m
Swell Vis
km
Cloud Weather Temp
°C
Press
MSL
hPa
Rain since
9am
mm
Dir  Spd
kts
Gust
kts
Height
m
Period
s
Dir
01/11:30pm SSW 20 23 - - - - - - - 27.3 1011.7 0.0
01/11:00pm SSW 19 22 - - - - - - - 27.5 1011.9 0.0
01/10:30pm SSW 18 21 - - - - - - - 27.7 1012.0 0.0
01/10:00pm SW 16 19 - - - - - - - 27.9 1012.2 0.0

Other formats

Comma delimited format used in spreadsheet applications
http://www.bom.gov.au/fwo/IDW60701/IDW60701.95304.axf

JavaScript Object Notation format (JSON) in row-major order
http://www.bom.gov.au/fwo/IDW60701/IDW60701.95304.json

Data quality

Most of these data are generated automatically and are frequently updated. Quality checks on data are not normally performed. It is possible for incorrect values to appear. Refer to information at About Latest Weather Observations and please check the disclaimer before using these data.